NC32 weather

Rivercliff Airport
Clemmons, North Carolina, United States

Public forecast

Using degrees Fahrenheit for public forecast. Weather courtesy of forecast.io.

Closest aviation weather report (METAR) to Rivercliff Airport

Closest report is Smith Reynolds Airport, 12.3 nm (22.7 km) ENE. Retrieved 2020/01/29 13:54 UTC (28 minutes ago):

KINT 291354Z 06005KT 10SM CLR 02/M01 A3011 RMK AO2 SLP201 T00221011

Closest aviation forecast (TAF) to Rivercliff Airport

Forecast is more than 6 hours old.

Closest forecast is Smith Reynolds Airport, 12.3 nm (22.7 km) ENE. Retrieved 2020/01/29 06:22 UTC (8 hours ago):

TAF KINT 290520Z 2906/3006 03003KT P6SM FEW250 FM291200 03003KT P6SM SCT040 BKN250 FM300000 09003KT P6SM BKN060